sensor_id;sensor_type;location;lat;lon;timestamp;P1;P2;P0
47711;PMS7003;57457;51.634;5.886;2022-12-07T00:00:12;13.21;14.29;7.09
47711;PMS7003;57457;51.634;5.886;2022-12-07T00:13:32;16.21;17.34;8.08
47711;PMS7003;57457;51.634;5.886;2022-12-07T00:26:51;15.01;16.9;8.08
47711;PMS7003;57457;51.634;5.886;2022-12-07T00:40:11;13.45;15.27;7.2
47711;PMS7003;57457;51.634;5.886;2022-12-07T00:53:30;18.25;15.05;6.88
47711;PMS7003;57457;51.634;5.886;2022-12-07T01:06:50;17.53;17.67;8.08
47711;PMS7003;57457;51.634;5.886;2022-12-07T01:20:10;20.65;19.52;9.6
47711;PMS7003;57457;51.634;5.886;2022-12-07T01:33:29;17.89;17.99;8.4
47711;PMS7003;57457;51.634;5.886;2022-12-07T01:46:49;16.81;17.56;7.53
47711;PMS7003;57457;51.634;5.886;2022-12-07T02:00:08;19.45;18.21;8.18
47711;PMS7003;57457;51.634;5.886;2022-12-07T02:13:28;18.73;17.45;7.64
47711;PMS7003;57457;51.634;5.886;2022-12-07T02:26:48;18.01;19.08;8.4
47711;PMS7003;57457;51.634;5.886;2022-12-07T02:40:07;17.05;17.23;7.53
47711;PMS7003;57457;51.634;5.886;2022-12-07T02:53:27;16.33;16.69;7.42
47711;PMS7003;57457;51.634;5.886;2022-12-07T03:06:47;14.53;14.51;6.44
47711;PMS7003;57457;51.634;5.886;2022-12-07T03:20:06;10.33;12.65;6.44
47711;PMS7003;57457;51.634;5.886;2022-12-07T03:33:26;17.77;17.56;7.42
47711;PMS7003;57457;51.634;5.886;2022-12-07T03:46:45;11.77;13.42;6.11
47711;PMS7003;57457;51.634;5.886;2022-12-07T04:00:05;12.13;13.74;6.11
47711;PMS7003;57457;51.634;5.886;2022-12-07T04:13:25;12.49;13.74;5.9
47711;PMS7003;57457;51.634;5.886;2022-12-07T04:26:44;12.73;14.4;6.33
47711;PMS7003;57457;51.634;5.886;2022-12-07T04:40:04;13.45;13.31;6.0
47711;PMS7003;57457;51.634;5.886;2022-12-07T04:53:23;15.37;14.07;6.11
47711;PMS7003;57457;51.634;5.886;2022-12-07T05:06:43;7.09;9.49;4.48
47711;PMS7003;57457;51.634;5.886;2022-12-07T05:20:03;6.25;8.51;3.71
47711;PMS7003;57457;51.634;5.886;2022-12-07T05:33:22;4.69;7.31;3.28
47711;PMS7003;57457;51.634;5.886;2022-12-07T05:46:42;10.45;9.93;4.48
47711;PMS7003;57457;51.634;5.886;2022-12-07T06:00:01;9.61;10.91;5.24
47711;PMS7003;57457;51.634;5.886;2022-12-07T06:13:21;11.05;11.13;5.13
47711;PMS7003;57457;51.634;5.886;2022-12-07T06:26:41;10.81;11.02;5.24
47711;PMS7003;57457;51.634;5.886;2022-12-07T06:40:00;8.65;10.91;4.7
47711;PMS7003;57457;51.634;5.886;2022-12-07T06:53:20;8.29;9.93;4.26
47711;PMS7003;57457;51.634;5.886;2022-12-07T07:19:59;7.45;9.06;4.15
47711;PMS7003;57457;51.634;5.886;2022-12-07T07:33:19;8.41;10.58;4.48
47711;PMS7003;57457;51.634;5.886;2022-12-07T07:46:38;9.01;10.15;4.48
47711;PMS7003;57457;51.634;5.886;2022-12-07T07:59:58;9.01;9.27;4.04
47711;PMS7003;57457;51.634;5.886;2022-12-07T08:13:18;11.65;11.56;5.02
47711;PMS7003;57457;51.634;5.886;2022-12-07T08:26:37;9.49;11.13;5.35
47711;PMS7003;57457;51.634;5.886;2022-12-07T08:39:57;10.93;12.0;5.68
47711;PMS7003;57457;51.634;5.886;2022-12-07T08:53:16;14.77;14.83;6.22
47711;PMS7003;57457;51.634;5.886;2022-12-07T09:06:36;16.21;15.49;6.66
47711;PMS7003;57457;51.634;5.886;2022-12-07T09:19:55;14.89;16.14;7.09
47711;PMS7003;57457;51.634;5.886;2022-12-07T09:33:15;19.57;15.71;6.88
47711;PMS7003;57457;51.634;5.886;2022-12-07T09:46:35;16.45;16.14;7.75
47711;PMS7003;57457;51.634;5.886;2022-12-07T09:59:54;13.33;13.2;6.22
47711;PMS7003;57457;51.634;5.886;2022-12-07T10:13:14;13.33;12.98;6.11
47711;PMS7003;57457;51.634;5.886;2022-12-07T10:26:34;9.01;10.47;4.8
47711;PMS7003;57457;51.634;5.886;2022-12-07T10:39:53;6.37;6.88;3.71
47711;PMS7003;57457;51.634;5.886;2022-12-07T10:53:13;1.44;4.04;2.52
47711;PMS7003;57457;51.634;5.886;2022-12-07T11:06:32;0.84;4.04;2.41
47711;PMS7003;57457;51.634;5.886;2022-12-07T11:19:52;4.69;4.37;2.3
47711;PMS7003;57457;51.634;5.886;2022-12-07T11:33:12;1.56;3.61;1.97
47711;PMS7003;57457;51.634;5.886;2022-12-07T11:46:31;4.57;4.15;1.97
47711;PMS7003;57457;51.634;5.886;2022-12-07T11:59:51;5.65;4.15;2.3
47711;PMS7003;57457;51.634;5.886;2022-12-07T12:13:10;1.32;3.93;1.86
47711;PMS7003;57457;51.634;5.886;2022-12-07T12:26:30;2.28;4.26;2.62
47711;PMS7003;57457;51.634;5.886;2022-12-07T12:39:50;2.16;4.91;2.52
47711;PMS7003;57457;51.634;5.886;2022-12-07T12:53:09;2.76;5.46;3.17
47711;PMS7003;57457;51.634;5.886;2022-12-07T13:06:29;2.64;4.26;2.52
47711;PMS7003;57457;51.634;5.886;2022-12-07T13:19:48;3.24;4.48;2.41
47711;PMS7003;57457;51.634;5.886;2022-12-07T13:33:08;0.36;3.17;1.64
47711;PMS7003;57457;51.634;5.886;2022-12-07T13:46:28;0.01;2.62;1.64
47711;PMS7003;57457;51.634;5.886;2022-12-07T13:59:47;0.01;2.08;1.43
47711;PMS7003;57457;51.634;5.886;2022-12-07T14:13:07;0.01;1.97;1.43
47711;PMS7003;57457;51.634;5.886;2022-12-07T14:26:26;0.01;2.08;1.54
47711;PMS7003;57457;51.634;5.886;2022-12-07T14:39:46;0.96;2.62;1.54
47711;PMS7003;57457;51.634;5.886;2022-12-07T15:06:25;1.2;4.15;2.3
47711;PMS7003;57457;51.634;5.886;2022-12-07T15:19:45;0.01;1.43;
47711;PMS7003;57457;51.634;5.886;2022-12-07T15:33:04;0.01;2.73;1.64
47711;PMS7003;57457;51.634;5.886;2022-12-07T15:46:24;0.01;2.52;1.54
47711;PMS7003;57457;51.634;5.886;2022-12-07T15:59:44;0.01;2.52;1.54
47711;PMS7003;57457;51.634;5.886;2022-12-07T16:13:03;1.2;3.17;1.86
47711;PMS7003;57457;51.634;5.886;2022-12-07T16:26:23;3.48;4.26;2.62
47711;PMS7003;57457;51.634;5.886;2022-12-07T16:39:42;1.44;4.37;2.41
47711;PMS7003;57457;51.634;5.886;2022-12-07T16:53:02;4.93;5.35;2.52
47711;PMS7003;57457;51.634;5.886;2022-12-07T17:06:22;3.24;5.68;2.84
47711;PMS7003;57457;51.634;5.886;2022-12-07T17:19:41;5.77;8.29;3.71
47711;PMS7003;57457;51.634;5.886;2022-12-07T17:33:01;5.89;8.18;3.61
47711;PMS7003;57457;51.634;5.886;2022-12-07T17:46:20;8.77;10.36;5.02
47711;PMS7003;57457;51.634;5.886;2022-12-07T17:59:40;10.33;12.22;5.79
47711;PMS7003;57457;51.634;5.886;2022-12-07T18:13:00;11.65;11.24;4.7
47711;PMS7003;57457;51.634;5.886;2022-12-07T18:26:19;14.89;11.02;5.13
47711;PMS7003;57457;51.634;5.886;2022-12-07T18:39:39;8.65;11.02;4.8
47711;PMS7003;57457;51.634;5.886;2022-12-07T18:52:59;9.01;10.91;5.13
47711;PMS7003;57457;51.634;5.886;2022-12-07T19:06:18;12.37;11.89;5.68
47711;PMS7003;57457;51.634;5.886;2022-12-07T19:19:38;12.13;12.0;5.9
47711;PMS7003;57457;51.634;5.886;2022-12-07T19:32:57;11.29;11.02;5.13
47711;PMS7003;57457;51.634;5.886;2022-12-07T19:46:17;9.01;11.02;5.02
47711;PMS7003;57457;51.634;5.886;2022-12-07T19:59:36;9.73;11.67;5.46
47711;PMS7003;57457;51.634;5.886;2022-12-07T20:12:56;9.25;10.8;5.24
47711;PMS7003;57457;51.634;5.886;2022-12-07T20:26:16;11.41;12.11;6.0
47711;PMS7003;57457;51.634;5.886;2022-12-07T20:39:35;11.65;13.74;7.09
47711;PMS7003;57457;51.634;5.886;2022-12-07T20:52:55;8.53;10.8;5.57
47711;PMS7003;57457;51.634;5.886;2022-12-07T21:06:15;7.21;9.49;5.02
47711;PMS7003;57457;51.634;5.886;2022-12-07T21:19:34;7.57;9.6;5.46
47711;PMS7003;57457;51.634;5.886;2022-12-07T21:32:54;9.25;10.47;6.11
47711;PMS7003;57457;51.634;5.886;2022-12-07T21:46:13;8.29;9.38;4.8
47711;PMS7003;57457;51.634;5.886;2022-12-07T21:59:33;10.93;10.04;5.57
47711;PMS7003;57457;51.634;5.886;2022-12-07T22:12:53;8.41;8.4;4.59
47711;PMS7003;57457;51.634;5.886;2022-12-07T22:39:32;6.01;8.4;4.37
47711;PMS7003;57457;51.634;5.886;2022-12-07T22:52:52;5.89;8.18;3.93
47711;PMS7003;57457;51.634;5.886;2022-12-07T23:06:11;6.85;9.17;4.26
47711;PMS7003;57457;51.634;5.886;2022-12-07T23:19:31;3.97;6.88;3.93
47711;PMS7003;57457;51.634;5.886;2022-12-07T23:32:50;8.29;8.73;4.37
47711;PMS7003;57457;51.634;5.886;2022-12-07T23:46:10;8.05;10.04;5.24
47711;PMS7003;57457;51.634;5.886;2022-12-07T23:59:30;13.93;14.07;6.33
